Alsace — PB4786 — position and weather

sailwx.info

Track history (hours):
 
Tides and Currents Weather Stations Pressure Air Temp Water Temp Dewpoint Dewpoint Depression Visibility Wind Speed Wind Dir Waves Ship Positions

Alsace

Last reported at 2017-Jul-23 05:17 UTC. Time now 2017-Jul-25 02:24 UTC.
Position N 50°50' E 006°60'.

Length 178 m; draft 1.8 m.

Type: Ship. MMSI: 244660556.

Date/timePositionNaut miles runAvg speedWind from/ knotsBaromVisibWave heightAir tempDewpointWater temp
2017-Jul-23 05:17N 50°50' E 006°60'2 3.3
2017-Jul-23 04:49N 50°51' E 006°60'3 4.1
2017-Jul-23 04:04N 50°54' E 007°03'0 4.7
2017-Jul-23 03:58N 50°54' E 007°02'2 4.3
2017-Jul-23 03:26N 50°55' E 006°59'3 4.8
2017-Jul-23 02:54N 50°57' E 006°58'10 3.9
2017-Jul-23 00:13N 51°07' E 006°53'3 4.3
2017-Jul-22 23:33N 51°10' E 006°51'0 4.6
2017-Jul-22 23:27N 51°10' E 006°50'2 4.0
2017-Jul-22 22:59N 51°09' E 006°48'2 4.8
2017-Jul-22 22:30N 51°11' E 006°47'2 4.1
2017-Jul-22 22:00N 51°12' E 006°44'2 4.0
2017-Jul-22 21:30N 51°14' E 006°44'8 3.3
2017-Jul-22 19:10N 51°21' E 006°40'3 3.6
2017-Jul-22 18:28N 51°23' E 006°43'2 4.8
2017-Jul-22 17:59N 51°25' E 006°45'2 5.1
2017-Jul-22 17:30N 51°27' E 006°43'2 4.2
2017-Jul-22 17:01N 51°29' E 006°41'3 4.6
2017-Jul-22 16:28N 51°30' E 006°43'2 5.4
2017-Jul-22 16:00N 51°32' E 006°41'3 4.1
2017-Jul-22 15:23N 51°35' E 006°40'2 5.3
2017-Jul-22 15:00N 51°34' E 006°37'5 5.3
2017-Jul-22 14:00N 51°39' E 006°36'3 5.5
2017-Jul-22 13:29N 51°40' E 006°31'4 5.3
2017-Jul-22 12:46N 51°42' E 006°27'1 5.7
2017-Jul-22 12:30N 51°43' E 006°25'2 4.7
2017-Jul-22 11:59N 51°45' E 006°24'3 5.6
2017-Jul-22 11:27N 51°47' E 006°19'3 6.3
2017-Jul-22 11:00N 51°49' E 006°17'3 6.0
2017-Jul-22 10:30N 51°50' E 006°12'3 5.8
2017-Jul-22 10:00N 51°51' E 006°08'3 6.2
2017-Jul-22 09:30N 51°52' E 006°03'3 5.2
2017-Jul-22 09:00N 51°52' E 005°59'2 4.6
2017-Jul-22 08:31N 51°52' E 005°55'3 5.5
2017-Jul-22 08:00N 51°51' E 005°51'3 6.2
2017-Jul-22 07:30N 51°53' E 005°47'3 6.2
2017-Jul-22 06:58N 51°54' E 005°42'3 6.3
2017-Jul-22 06:30N 51°54' E 005°37'3 6.3
2017-Jul-22 06:00N 51°54' E 005°32'5 5.9
2017-Jul-22 05:12N 51°52' E 005°25'1 5.5
2017-Jul-22 04:58N 51°51' E 005°25'3 6.4
2017-Jul-22 04:27N 51°48' E 005°21'4 6.0
2017-Jul-22 03:51N 51°49' E 005°16'4 7.1
2017-Jul-22 03:19N 51°49' E 005°09'2 7.3
2017-Jul-22 03:00N 51°50' E 005°06'4 7.6
2017-Jul-22 02:30N 51°49' E 004°60'4 8.7
2017-Jul-22 01:59N 51°49' E 004°52'5 9.9
2017-Jul-22 01:30N 51°49' E 004°45'4 7.5
2017-Jul-22 01:00N 51°51' E 004°39'712.5
2017-Jul-22 00:27N 51°55' E 004°30'2 3.6
2017-Jul-22 00:00N 51°54' E 004°28'1 2.8
2017-Jul-21 23:30N 51°53' E 004°26'0 0.4
2017-Jul-21 23:00N 51°53' E 004°26'0 0.5
2017-Jul-21 22:30N 51°53' E 004°26'0 0.0
2017-Jul-21 22:01N 51°53' E 004°26'0 0.0
2017-Jul-21 21:30N 51°53' E 004°26'0 0.0
2017-Jul-21 21:00N 51°53' E 004°26'0 0.0
2017-Jul-21 20:30N 51°53' E 004°26'0 0.0
2017-Jul-21 20:00N 51°53' E 004°26'0 0.0
2017-Jul-21 19:30N 51°53' E 004°26'1 1.1
2017-Jul-21 19:00N 51°54' E 004°26'4 7.8
2017-Jul-21 18:30N 51°54' E 004°33'5 9.4
2017-Jul-21 18:00N 51°52' E 004°39'1 2.3
2017-Jul-21 17:30N 51°51' E 004°40'0 0.0
2017-Jul-21 17:00N 51°51' E 004°40'0 0.0
2017-Jul-21 16:30N 51°51' E 004°40'1 3.0
2017-Jul-21 16:00N 51°49' E 004°41'2 3.4
2017-Jul-21 15:30N 51°50' E 004°43'0 0.3
2017-Jul-21 15:00N 51°50' E 004°43'0 0.0
2017-Jul-21 14:30N 51°50' E 004°43'0 0.0
2017-Jul-21 14:00N 51°50' E 004°43'0 0.0
2017-Jul-21 13:30N 51°50' E 004°43'0 0.0
2017-Jul-21 13:00N 51°50' E 004°43'0 0.0
2017-Jul-21 12:30N 51°50' E 004°43'0 0.0
2017-Jul-21 12:00N 51°50' E 004°43'0 0.0
2017-Jul-21 11:30N 51°50' E 004°43'0 0.0
2017-Jul-21 11:00N 51°50' E 004°43'0 0.0
2017-Jul-21 10:20N 51°50' E 004°43'0 0.0
2017-Jul-21 10:00N 51°50' E 004°43'0 0.0
2017-Jul-21 09:30N 51°50' E 004°43'0 0.0
2017-Jul-21 09:00N 51°50' E 004°43'0 0.0
2017-Jul-21 08:30N 51°50' E 004°43'0 0.0
2017-Jul-21 08:00N 51°50' E 004°43'0 0.0
2017-Jul-21 07:31N 51°50' E 004°43'0 0.0
2017-Jul-21 07:00N 51°50' E 004°43'0 0.0
2017-Jul-21 06:30N 51°50' E 004°43'0 0.0
2017-Jul-21 06:00N 51°50' E 004°43'0 0.0
2017-Jul-21 05:30N 51°50' E 004°43'0 0.0
2017-Jul-21 05:00N 51°50' E 004°43'0 0.0
2017-Jul-21 04:30N 51°50' E 004°43'0 0.1
2017-Jul-21 03:59N 51°50' E 004°43'0 0.0
2017-Jul-21 03:30N 51°50' E 004°43'0 0.0
2017-Jul-21 03:00N 51°50' E 004°43'0 0.0
2017-Jul-21 02:30N 51°50' E 004°43'0 0.0
2017-Jul-21 02:00N 51°50' E 004°43'0 0.0
2017-Jul-21 01:30N 51°50' E 004°43'0 0.0
2017-Jul-21 01:00N 51°50' E 004°43'0 0.0
2017-Jul-21 00:30N 51°50' E 004°43'0 0.0
2017-Jul-21 00:00N 51°50' E 004°43'0 0.1
2017-Jul-20 23:30N 51°50' E 004°43'0 0.8
2017-Jul-20 23:00N 51°49' E 004°43'3 5.4
2017-Jul-20 22:31N 51°48' E 004°39'611.1
2017-Jul-20 22:00N 51°43' E 004°37'611.7
2017-Jul-20 21:30N 51°42' E 004°28'20 5.0
2017-Jul-20 17:35N 51°35' E 003°58'1 9.4
2017-Jul-20 17:30N 51°35' E 003°58'5 8.6
2017-Jul-20 16:58N 51°30' E 004°00'3 6.1
2017-Jul-20 16:29N 51°27' E 004°01'3 6.6
2017-Jul-20 16:00N 51°25' E 004°03'4 8.3
2017-Jul-20 15:28N 51°24' E 004°10'5 9.6
2017-Jul-20 14:59N 51°21' E 004°16'3 2.9
2017-Jul-20 14:01N 51°18' E 004°16'0 0.0
2017-Jul-20 13:29N 51°18' E 004°16'0 0.0
2017-Jul-20 13:00N 51°18' E 004°16'0 0.0
2017-Jul-20 12:29N 51°18' E 004°16'0 0.0
2017-Jul-20 12:00N 51°18' E 004°16'1 1.9
2017-Jul-20 11:28N 51°19' E 004°17'0 0.0
2017-Jul-20 11:00N 51°19' E 004°17'0 0.0
2017-Jul-20 10:30N 51°19' E 004°17'0 0.0
2017-Jul-20 09:58N 51°19' E 004°17'0 0.0
2017-Jul-20 09:30N 51°19' E 004°17'0 0.0
2017-Jul-20 09:00N 51°19' E 004°17'0 0.0
2017-Jul-20 08:30N 51°19' E 004°17'0 0.0
2017-Jul-20 07:59N 51°19' E 004°17'2 4.7
2017-Jul-20 07:30N 51°21' E 004°16'0 0.0
2017-Jul-20 07:00N 51°21' E 004°16'0 0.0
2017-Jul-20 06:30N 51°21' E 004°16'1 1.2
2017-Jul-20 06:00N 51°21' E 004°15'0 0.0
2017-Jul-20 05:30N 51°21' E 004°15'0 0.1
2017-Jul-20 04:56N 51°21' E 004°15'0 0.0
2017-Jul-20 04:31N 51°21' E 004°15'0 0.0
2017-Jul-20 03:58N 51°21' E 004°15'0 0.0
2017-Jul-20 03:24N 51°21' E 004°15'0 0.0
2017-Jul-20 03:00N 51°21' E 004°15'0 0.0
2017-Jul-20 02:26N 51°21' E 004°15'2 5.2
2017-Jul-20 01:59N 51°19' E 004°16'1 2.1
2017-Jul-20 01:29N 51°18' E 004°16'0 0.0
2017-Jul-20 00:59N 51°18' E 004°16'0 0.0
2017-Jul-20 00:29N 51°18' E 004°16'0 0.0
2017-Jul-20 00:00N 51°18' E 004°16'0 0.1
2017-Jul-19 23:30N 51°18' E 004°16'0 0.2
2017-Jul-19 22:59N 51°18' E 004°16'0 0.6
2017-Jul-19 22:30N 51°18' E 004°16'0 0.0
2017-Jul-19 22:00N 51°18' E 004°16'0 0.1
2017-Jul-19 21:30N 51°18' E 004°16'1 1.0
2017-Jul-19 21:00N 51°18' E 004°16'1 1.7
2017-Jul-19 20:30N 51°19' E 004°17'0 0.0
2017-Jul-19 19:58N 51°19' E 004°17'1 2.3
2017-Jul-19 19:30N 51°20' E 004°17'0 0.5
2017-Jul-19 18:59N 51°20' E 004°17'0 0.0
2017-Jul-19 18:30N 51°20' E 004°17'2 4.0
2017-Jul-19 17:59N 51°18' E 004°16'1 2.9
2017-Jul-19 17:30N 51°17' E 004°15'1 1.5
2017-Jul-19 16:58N 51°18' E 004°16'3 5.9
2017-Jul-19 16:30N 51°17' E 004°20'0 0.2
2017-Jul-19 16:01N 51°16' E 004°20'0 0.2
2017-Jul-19 15:28N 51°16' E 004°20'0 0.2
2017-Jul-19 14:59N 51°16' E 004°20'1 2.4
2017-Jul-19 14:28N 51°17' E 004°22'0 0.0
2017-Jul-19 14:00N 51°17' E 004°22'0 0.0
2017-Jul-19 13:29N 51°17' E 004°22'0 0.3
2017-Jul-19 13:00N 51°17' E 004°22'2 3.8
2017-Jul-19 12:30N 51°18' E 004°20'2 3.1
2017-Jul-19 11:59N 51°20' E 004°20'0 0.0
2017-Jul-19 11:30N 51°20' E 004°20'0 0.3
2017-Jul-19 10:58N 51°20' E 004°20'0 0.0
2017-Jul-19 10:29N 51°20' E 004°20'0 0.0
2017-Jul-19 10:00N 51°20' E 004°20'0 0.1
2017-Jul-19 09:30N 51°20' E 004°20'0 0.0
2017-Jul-19 09:00N 51°20' E 004°20'0 0.0
2017-Jul-19 08:30N 51°20' E 004°20'2 2.9
2017-Jul-19 07:54N 51°18' E 004°20'1 2.1
2017-Jul-19 07:30N 51°17' E 004°21'1 1.2
2017-Jul-19 07:00N 51°17' E 004°21'3 5.8
2017-Jul-19 06:29N 51°15' E 004°24'1 1.8
2017-Jul-19 06:00N 51°16' E 004°24'0 0.0
2017-Jul-19 05:30N 51°16' E 004°24'0 0.0
2017-Jul-19 04:59N 51°16' E 004°24'0 0.0
2017-Jul-19 04:28N 51°16' E 004°24'0 0.0
2017-Jul-19 04:00N 51°16' E 004°24'0 0.0
2017-Jul-19 03:30N 51°16' E 004°24'0 0.0
2017-Jul-19 02:59N 51°16' E 004°24'0 0.0
2017-Jul-19 02:27N 51°16' E 004°24'0 0.0
2017-Jul-19 02:00N 51°16' E 004°24'0 0.0
2017-Jul-19 01:29N 51°16' E 004°24'0 0.0
2017-Jul-19 01:00N 51°16' E 004°24'0 0.0
2017-Jul-19 00:25N 51°16' E 004°24'0 0.0
2017-Jul-18 23:55N 51°16' E 004°24'0 0.0
2017-Jul-18 23:28N 51°16' E 004°24'0 0.0
2017-Jul-18 22:59N 51°16' E 004°24'0 0.0
2017-Jul-18 22:28N 51°16' E 004°24'0 0.0
2017-Jul-18 22:00N 51°16' E 004°24'0 0.0
2017-Jul-18 21:30N 51°16' E 004°24'0 0.0
2017-Jul-18 21:01N 51°16' E 004°24'0 0.0
2017-Jul-18 20:27N 51°16' E 004°24'0 0.0
2017-Jul-18 19:57N 51°16' E 004°24'0 0.0
2017-Jul-18 19:26N 51°16' E 004°24'0 0.0
2017-Jul-18 19:01N 51°16' E 004°24'0 0.0
2017-Jul-18 18:30N 51°16' E 004°24'0 0.0
2017-Jul-18 18:00N 51°16' E 004°24'0 0.0
2017-Jul-18 17:29N 51°16' E 004°24'1 1.4
2017-Jul-18 17:00N 51°15' E 004°24'1 1.7
2017-Jul-18 16:31N 51°16' E 004°24'1 1.5
2017-Jul-18 16:01N 51°16' E 004°23'2 3.2
2017-Jul-18 15:30N 51°16' E 004°20'0 0.7
2017-Jul-18 15:00N 51°17' E 004°20'2 2.0
2017-Jul-18 14:00N 51°16' E 004°17'0 0.2
2017-Jul-18 13:30N 51°16' E 004°17'1 2.7
2017-Jul-18 12:59N 51°16' E 004°15'1 2.0
2017-Jul-18 12:29N 51°17' E 004°13'0 0.0
2017-Jul-18 11:59N 51°17' E 004°13'0 0.0
2017-Jul-18 11:30N 51°17' E 004°13'0 0.1
2017-Jul-18 11:00N 51°17' E 004°13'1 2.1
2017-Jul-18 10:30N 51°17' E 004°15'1 2.5
2017-Jul-18 10:00N 51°18' E 004°16'3 6.5
2017-Jul-18 09:30N 51°21' E 004°16'0 0.0
2017-Jul-18 09:00N 51°21' E 004°16'0 0.0
2017-Jul-18 08:29N 51°21' E 004°16'0 0.0
2017-Jul-18 08:00N 51°21' E 004°16'3 5.1
2017-Jul-18 07:29N 51°18' E 004°16'1 3.2
2017-Jul-18 07:00N 51°17' E 004°15'0 0.0
2017-Jul-18 06:30N 51°17' E 004°15'2 3.7
2017-Jul-18 06:00N 51°19' E 004°16'2 4.2
2017-Jul-18 05:30N 51°21' E 004°15'0 0.0
2017-Jul-18 04:57N 51°21' E 004°15'0 0.0
2017-Jul-18 04:30N 51°21' E 004°15'0 0.1
2017-Jul-18 04:00N 51°21' E 004°15'0 0.0
2017-Jul-18 03:30N 51°21' E 004°15'0 0.0
2017-Jul-18 03:00N 51°21' E 004°15'0 0.0
2017-Jul-18 02:27N 51°21' E 004°15'0 0.0
2017-Jul-18 02:00N 51°21' E 004°15'0 0.0
2017-Jul-18 01:30N 51°21' E 004°15'0 0.0
2017-Jul-18 00:59N 51°21' E 004°15'0 0.0
2017-Jul-18 00:28N 51°21' E 004°15'0 0.0
2017-Jul-18 00:00N 51°21' E 004°15'0 0.0
2017-Jul-17 23:27N 51°21' E 004°15'1 2.2
2017-Jul-17 23:00N 51°20' E 004°16'0 0.0
2017-Jul-17 22:30N 51°20' E 004°16'0 0.0
2017-Jul-17 21:53N 51°20' E 004°16'0 0.3
2017-Jul-17 21:30N 51°21' E 004°16'0 0.0
2017-Jul-17 21:00N 51°21' E 004°16'0 0.0
2017-Jul-17 20:30N 51°21' E 004°16'0 0.2
2017-Jul-17 19:59N 51°20' E 004°16'2 4.6
2017-Jul-17 19:30N 51°18' E 004°16'0 0.0
2017-Jul-17 18:59N 51°18' E 004°16'0 0.0
2017-Jul-17 18:29N 51°18' E 004°16'0 0.0
2017-Jul-17 18:00N 51°18' E 004°16'1 1.2
2017-Jul-17 17:29N 51°19' E 004°17'0 0.0
2017-Jul-17 16:59N 51°19' E 004°17'0 0.0
2017-Jul-17 16:30N 51°19' E 004°17'0 0.0
2017-Jul-17 16:01N 51°19' E 004°17'0 0.1
2017-Jul-17 15:30N 51°19' E 004°17'2 3.0
2017-Jul-17 14:55N 51°21' E 004°17'0 0.5
2017-Jul-17 14:29N 51°21' E 004°18'2 3.4
2017-Jul-17 13:46N 51°23' E 004°16'4 7.7
2017-Jul-17 13:13N 51°27' E 004°14'16 6.1
2017-Jul-17 10:35N 51°41' E 004°25'0 0.0
2017-Jul-17 10:30N 51°41' E 004°25'0 0.0
2017-Jul-17 10:00N 51°41' E 004°25'0 0.6
2017-Jul-17 09:30N 51°42' E 004°25'0 0.0
2017-Jul-17 09:00N 51°42' E 004°25'1122.4
2017-Jul-17 08:30N 51°44' E 004°43'0 0.0
2017-Jul-17 08:00N 51°44' E 004°43'0 0.0
2017-Jul-17 07:30N 51°44' E 004°43'2 4.9
2017-Jul-17 07:00N 51°46' E 004°45'4 8.1
2017-Jul-17 06:30N 51°48' E 004°51'2 3.4
2017-Jul-17 05:58N 51°49' E 004°53'4 8.4
2017-Jul-17 05:29N 51°49' E 004°60'5 8.7
2017-Jul-17 04:52N 51°49' E 005°08'4 9.1
2017-Jul-17 04:23N 51°49' E 005°16'4 8.1
2017-Jul-17 03:52N 51°49' E 005°22'7 8.8
2017-Jul-17 03:05N 51°53' E 005°30'1 9.7
2017-Jul-17 03:00N 51°54' E 005°32'5 9.6
2017-Jul-17 02:30N 51°54' E 005°40'5 9.6
2017-Jul-17 02:00N 51°53' E 005°47'4 7.8
2017-Jul-17 01:30N 51°52' E 005°53'4 7.3
2017-Jul-17 01:00N 51°52' E 005°59'4 7.8
2017-Jul-17 00:30N 51°51' E 006°05'5 9.6
2017-Jul-17 00:00N 51°50' E 006°13'5 9.1
2017-Jul-16 23:29N 51°47' E 006°19'4 8.4
2017-Jul-16 23:00N 51°45' E 006°25'4 7.8
2017-Jul-16 22:29N 51°42' E 006°28'10 7.0
2017-Jul-16 21:04N 51°35' E 006°40'1 9.7
2017-Jul-16 20:58N 51°34' E 006°41'4 8.5
2017-Jul-16 20:30N 51°31' E 006°43'3 5.9
2017-Jul-16 20:00N 51°28' E 006°43'5 8.9
2017-Jul-16 19:29N 51°23' E 006°44'27 6.2
2017-Jul-16 15:05N 50°58' E 006°60'1 9.8
2017-Jul-16 15:00N 50°57' E 006°58'4 7.9
2017-Jul-16 14:27N 50°54' E 007°02'11 7.4
2017-Jul-16 12:58N 50°43' E 007°08'102 6.8
2017-Jul-15 21:55N 49°14' E 008°23'100 3.4
2017-Jul-14 16:50N 47°39' E 007°31'0 1.2
2017-Jul-14 16:26N 47°39' E 007°32'1 1.9
2017-Jul-14 16:00N 47°38' E 007°32'4 7.0
2017-Jul-14 15:30N 47°36' E 007°35'1 1.0
2017-Jul-14 15:00N 47°35' E 007°35'0 0.0
2017-Jul-14 14:28N 47°35' E 007°35'0 0.0
2017-Jul-14 14:00N 47°35' E 007°35'0 0.0
2017-Jul-14 13:29N 47°35' E 007°35'0 0.4
2017-Jul-14 13:00N 47°35' E 007°35'0 0.7
2017-Jul-14 12:26N 47°35' E 007°36'0 0.1
2017-Jul-14 11:59N 47°35' E 007°36'0 0.0
2017-Jul-14 11:29N 47°35' E 007°36'0 0.0
2017-Jul-14 11:00N 47°35' E 007°36'0 0.0
2017-Jul-14 10:28N 47°35' E 007°36'0 0.1
2017-Jul-14 10:00N 47°35' E 007°36'0 0.1
2017-Jul-14 09:30N 47°35' E 007°36'0 0.0
2017-Jul-14 09:00N 47°35' E 007°36'0 0.0
2017-Jul-14 08:30N 47°35' E 007°36'0 0.0
2017-Jul-14 07:58N 47°35' E 007°36'0 0.1
2017-Jul-14 07:30N 47°35' E 007°36'0 0.0
2017-Jul-14 06:59N 47°35' E 007°36'0 0.0
2017-Jul-14 06:25N 47°35' E 007°36'0 0.0
2017-Jul-14 06:00N 47°35' E 007°36'0 0.1
2017-Jul-14 05:30N 47°35' E 007°36'0 0.1
2017-Jul-14 05:00N 47°35' E 007°36'0 0.1
2017-Jul-14 04:29N 47°35' E 007°36'0 0.1
2017-Jul-14 03:57N 47°35' E 007°36'0 0.0
2017-Jul-14 03:23N 47°35' E 007°36'0 0.1
2017-Jul-14 02:49N 47°35' E 007°36'0 0.2
2017-Jul-14 02:14N 47°35' E 007°36'0 0.1
2017-Jul-14 01:59N 47°35' E 007°36'0 0.0
2017-Jul-14 01:30N 47°35' E 007°36'0 0.1
2017-Jul-14 00:56N 47°35' E 007°36'0 0.1
2017-Jul-14 00:24N 47°35' E 007°36'0 0.1
2017-Jul-14 00:00N 47°35' E 007°36'0 0.0
2017-Jul-13 23:28N 47°35' E 007°36'0 0.0
2017-Jul-13 22:57N 47°35' E 007°36'0 0.0
2017-Jul-13 22:30N 47°35' E 007°36'0 0.1
2017-Jul-13 21:55N 47°35' E 007°36'0 0.1
2017-Jul-13 21:26N 47°35' E 007°36'0 0.1
2017-Jul-13 20:58N 47°35' E 007°36'0 0.0
2017-Jul-13 20:30N 47°35' E 007°36'0 0.0
2017-Jul-13 19:56N 47°35' E 007°36'0 0.0
2017-Jul-13 18:59N 47°35' E 007°36'0 0.0
2017-Jul-13 18:28N 47°35' E 007°36'0 0.3
2017-Jul-13 18:00N 47°35' E 007°36'0 0.4
2017-Jul-13 17:28N 47°35' E 007°36'0 0.0
2017-Jul-13 16:58N 47°35' E 007°36'0 0.0
2017-Jul-13 16:30N 47°35' E 007°36'0 0.0
2017-Jul-13 16:00N 47°35' E 007°36'0 0.0
2017-Jul-13 15:29N 47°35' E 007°36'0 0.0
2017-Jul-13 15:00N 47°35' E 007°36'0 0.0
2017-Jul-13 14:30N 47°35' E 007°36'0 0.0
2017-Jul-13 14:00N 47°35' E 007°36'0 0.0
2017-Jul-13 13:30N 47°35' E 007°36'0 0.0
2017-Jul-13 13:00N 47°35' E 007°36'0 0.0
2017-Jul-13 12:30N 47°35' E 007°36'2 1.7
2017-Jul-13 11:27N 47°34' E 007°37'0 0.9
2017-Jul-13 11:00N 47°34' E 007°38'2 3.3
2017-Jul-13 10:30N 47°32' E 007°40'0 0.0
2017-Jul-13 10:00N 47°32' E 007°40'0 0.0
2017-Jul-13 09:30N 47°32' E 007°40'0 0.0
2017-Jul-13 09:00N 47°32' E 007°40'0 0.0
2017-Jul-13 08:30N 47°32' E 007°40'0 0.0
2017-Jul-13 07:59N 47°32' E 007°40'0 0.0
2017-Jul-13 07:30N 47°32' E 007°40'0 0.0
2017-Jul-13 06:51N 47°32' E 007°40'0 0.0
2017-Jul-13 06:29N 47°32' E 007°40'1 1.2
2017-Jul-13 05:58N 47°33' E 007°39'0 0.8
2017-Jul-13 05:30N 47°33' E 007°39'  
Track history (hours):
 
Tides and Currents Weather Stations Pressure Air Temp Water Temp Dewpoint Dewpoint Depression Visibility Wind Speed Wind Dir Waves Ship Positions

Alsace

Last reported at 2017-Jul-23 05:17 UTC. Time now 2017-Jul-25 02:24 UTC.
Position N 50°50' E 006°60'.

Length 178 m; draft 1.8 m.

Type: Ship. MMSI: 244660556.

Date/timePositionNaut miles runAvg speedWind from/ knotsBaromVisibWave heightAir tempDewpointWater temp
2017-Jul-23 05:17N 50°50' E 006°60'2 3.3
2017-Jul-23 04:49N 50°51' E 006°60'3 4.1
2017-Jul-23 04:04N 50°54' E 007°03'0 4.7
2017-Jul-23 03:58N 50°54' E 007°02'2 4.3
2017-Jul-23 03:26N 50°55' E 006°59'3 4.8
2017-Jul-23 02:54N 50°57' E 006°58'10 3.9
2017-Jul-23 00:13N 51°07' E 006°53'3 4.3
2017-Jul-22 23:33N 51°10' E 006°51'0 4.6
2017-Jul-22 23:27N 51°10' E 006°50'2 4.0
2017-Jul-22 22:59N 51°09' E 006°48'2 4.8
2017-Jul-22 22:30N 51°11' E 006°47'2 4.1
2017-Jul-22 22:00N 51°12' E 006°44'2 4.0
2017-Jul-22 21:30N 51°14' E 006°44'8 3.3
2017-Jul-22 19:10N 51°21' E 006°40'3 3.6
2017-Jul-22 18:28N 51°23' E 006°43'2 4.8
2017-Jul-22 17:59N 51°25' E 006°45'2 5.1
2017-Jul-22 17:30N 51°27' E 006°43'2 4.2
2017-Jul-22 17:01N 51°29' E 006°41'3 4.6
2017-Jul-22 16:28N 51°30' E 006°43'2 5.4
2017-Jul-22 16:00N 51°32' E 006°41'3 4.1
2017-Jul-22 15:23N 51°35' E 006°40'2 5.3
2017-Jul-22 15:00N 51°34' E 006°37'5 5.3
2017-Jul-22 14:00N 51°39' E 006°36'3 5.5
2017-Jul-22 13:29N 51°40' E 006°31'4 5.3
2017-Jul-22 12:46N 51°42' E 006°27'1 5.7
2017-Jul-22 12:30N 51°43' E 006°25'2 4.7
2017-Jul-22 11:59N 51°45' E 006°24'3 5.6
2017-Jul-22 11:27N 51°47' E 006°19'3 6.3
2017-Jul-22 11:00N 51°49' E 006°17'3 6.0
2017-Jul-22 10:30N 51°50' E 006°12'3 5.8
2017-Jul-22 10:00N 51°51' E 006°08'3 6.2
2017-Jul-22 09:30N 51°52' E 006°03'3 5.2
2017-Jul-22 09:00N 51°52' E 005°59'2 4.6
2017-Jul-22 08:31N 51°52' E 005°55'3 5.5
2017-Jul-22 08:00N 51°51' E 005°51'3 6.2
2017-Jul-22 07:30N 51°53' E 005°47'3 6.2
2017-Jul-22 06:58N 51°54' E 005°42'3 6.3
2017-Jul-22 06:30N 51°54' E 005°37'3 6.3
2017-Jul-22 06:00N 51°54' E 005°32'5 5.9
2017-Jul-22 05:12N 51°52' E 005°25'1 5.5
2017-Jul-22 04:58N 51°51' E 005°25'3 6.4
2017-Jul-22 04:27N 51°48' E 005°21'4 6.0
2017-Jul-22 03:51N 51°49' E 005°16'4 7.1
2017-Jul-22 03:19N 51°49' E 005°09'2 7.3
2017-Jul-22 03:00N 51°50' E 005°06'4 7.6
2017-Jul-22 02:30N 51°49' E 004°60'4 8.7
2017-Jul-22 01:59N 51°49' E 004°52'5 9.9
2017-Jul-22 01:30N 51°49' E 004°45'4 7.5
2017-Jul-22 01:00N 51°51' E 004°39'712.5
2017-Jul-22 00:27N 51°55' E 004°30'2 3.6
2017-Jul-22 00:00N 51°54' E 004°28'1 2.8
2017-Jul-21 23:30N 51°53' E 004°26'0 0.4
2017-Jul-21 23:00N 51°53' E 004°26'0 0.5
2017-Jul-21 22:30N 51°53' E 004°26'0 0.0
2017-Jul-21 22:01N 51°53' E 004°26'0 0.0
2017-Jul-21 21:30N 51°53' E 004°26'0 0.0
2017-Jul-21 21:00N 51°53' E 004°26'0 0.0
2017-Jul-21 20:30N 51°53' E 004°26'0 0.0
2017-Jul-21 20:00N 51°53' E 004°26'0 0.0
2017-Jul-21 19:30N 51°53' E 004°26'1 1.1
2017-Jul-21 19:00N 51°54' E 004°26'4 7.8
2017-Jul-21 18:30N 51°54' E 004°33'5 9.4
2017-Jul-21 18:00N 51°52' E 004°39'1 2.3
2017-Jul-21 17:30N 51°51' E 004°40'0 0.0
2017-Jul-21 17:00N 51°51' E 004°40'0 0.0
2017-Jul-21 16:30N 51°51' E 004°40'1 3.0
2017-Jul-21 16:00N 51°49' E 004°41'2 3.4
2017-Jul-21 15:30N 51°50' E 004°43'0 0.3
2017-Jul-21 15:00N 51°50' E 004°43'0 0.0
2017-Jul-21 14:30N 51°50' E 004°43'0 0.0
2017-Jul-21 14:00N 51°50' E 004°43'0 0.0
2017-Jul-21 13:30N 51°50' E 004°43'0 0.0
2017-Jul-21 13:00N 51°50' E 004°43'0 0.0
2017-Jul-21 12:30N 51°50' E 004°43'0 0.0
2017-Jul-21 12:00N 51°50' E 004°43'0 0.0
2017-Jul-21 11:30N 51°50' E 004°43'0 0.0
2017-Jul-21 11:00N 51°50' E 004°43'0 0.0
2017-Jul-21 10:20N 51°50' E 004°43'0 0.0
2017-Jul-21 10:00N 51°50' E 004°43'0 0.0
2017-Jul-21 09:30N 51°50' E 004°43'0 0.0
2017-Jul-21 09:00N 51°50' E 004°43'0 0.0
2017-Jul-21 08:30N 51°50' E 004°43'0 0.0
2017-Jul-21 08:00N 51°50' E 004°43'0 0.0
2017-Jul-21 07:31N 51°50' E 004°43'0 0.0
2017-Jul-21 07:00N 51°50' E 004°43'0 0.0
2017-Jul-21 06:30N 51°50' E 004°43'0 0.0
2017-Jul-21 06:00N 51°50' E 004°43'0 0.0
2017-Jul-21 05:30N 51°50' E 004°43'0 0.0
2017-Jul-21 05:00N 51°50' E 004°43'0 0.0
2017-Jul-21 04:30N 51°50' E 004°43'0 0.1
2017-Jul-21 03:59N 51°50' E 004°43'0 0.0
2017-Jul-21 03:30N 51°50' E 004°43'0 0.0
2017-Jul-21 03:00N 51°50' E 004°43'0 0.0
2017-Jul-21 02:30N 51°50' E 004°43'0 0.0
2017-Jul-21 02:00N 51°50' E 004°43'0 0.0
2017-Jul-21 01:30N 51°50' E 004°43'0 0.0
2017-Jul-21 01:00N 51°50' E 004°43'0 0.0
2017-Jul-21 00:30N 51°50' E 004°43'0 0.0
2017-Jul-21 00:00N 51°50' E 004°43'0 0.1
2017-Jul-20 23:30N 51°50' E 004°43'0 0.8
2017-Jul-20 23:00N 51°49' E 004°43'3 5.4
2017-Jul-20 22:31N 51°48' E 004°39'611.1
2017-Jul-20 22:00N 51°43' E 004°37'611.7
2017-Jul-20 21:30N 51°42' E 004°28'20 5.0
2017-Jul-20 17:35N 51°35' E 003°58'1 9.4
2017-Jul-20 17:30N 51°35' E 003°58'5 8.6
2017-Jul-20 16:58N 51°30' E 004°00'3 6.1
2017-Jul-20 16:29N 51°27' E 004°01'3 6.6
2017-Jul-20 16:00N 51°25' E 004°03'4 8.3
2017-Jul-20 15:28N 51°24' E 004°10'5 9.6
2017-Jul-20 14:59N 51°21' E 004°16'3 2.9
2017-Jul-20 14:01N 51°18' E 004°16'0 0.0
2017-Jul-20 13:29N 51°18' E 004°16'0 0.0
2017-Jul-20 13:00N 51°18' E 004°16'0 0.0
2017-Jul-20 12:29N 51°18' E 004°16'0 0.0
2017-Jul-20 12:00N 51°18' E 004°16'1 1.9
2017-Jul-20 11:28N 51°19' E 004°17'0 0.0
2017-Jul-20 11:00N 51°19' E 004°17'0 0.0
2017-Jul-20 10:30N 51°19' E 004°17'0 0.0
2017-Jul-20 09:58N 51°19' E 004°17'0 0.0
2017-Jul-20 09:30N 51°19' E 004°17'0 0.0
2017-Jul-20 09:00N 51°19' E 004°17'0 0.0
2017-Jul-20 08:30N 51°19' E 004°17'0 0.0
2017-Jul-20 07:59N 51°19' E 004°17'2 4.7
2017-Jul-20 07:30N 51°21' E 004°16'0 0.0
2017-Jul-20 07:00N 51°21' E 004°16'0 0.0
2017-Jul-20 06:30N 51°21' E 004°16'1 1.2
2017-Jul-20 06:00N 51°21' E 004°15'0 0.0
2017-Jul-20 05:30N 51°21' E 004°15'0 0.1
2017-Jul-20 04:56N 51°21' E 004°15'0 0.0
2017-Jul-20 04:31N 51°21' E 004°15'0 0.0
2017-Jul-20 03:58N 51°21' E 004°15'0 0.0
2017-Jul-20 03:24N 51°21' E 004°15'0 0.0
2017-Jul-20 03:00N 51°21' E 004°15'0 0.0
2017-Jul-20 02:26N 51°21' E 004°15'2 5.2
2017-Jul-20 01:59N 51°19' E 004°16'1 2.1
2017-Jul-20 01:29N 51°18' E 004°16'0 0.0
2017-Jul-20 00:59N 51°18' E 004°16'0 0.0
2017-Jul-20 00:29N 51°18' E 004°16'0 0.0
2017-Jul-20 00:00N 51°18' E 004°16'0 0.1
2017-Jul-19 23:30N 51°18' E 004°16'0 0.2
2017-Jul-19 22:59N 51°18' E 004°16'0 0.6
2017-Jul-19 22:30N 51°18' E 004°16'0 0.0
2017-Jul-19 22:00N 51°18' E 004°16'0 0.1
2017-Jul-19 21:30N 51°18' E 004°16'1 1.0
2017-Jul-19 21:00N 51°18' E 004°16'1 1.7
2017-Jul-19 20:30N 51°19' E 004°17'0 0.0
2017-Jul-19 19:58N 51°19' E 004°17'1 2.3
2017-Jul-19 19:30N 51°20' E 004°17'0 0.5
2017-Jul-19 18:59N 51°20' E 004°17'0 0.0
2017-Jul-19 18:30N 51°20' E 004°17'2 4.0
2017-Jul-19 17:59N 51°18' E 004°16'1 2.9
2017-Jul-19 17:30N 51°17' E 004°15'1 1.5
2017-Jul-19 16:58N 51°18' E 004°16'3 5.9
2017-Jul-19 16:30N 51°17' E 004°20'0 0.2
2017-Jul-19 16:01N 51°16' E 004°20'0 0.2
2017-Jul-19 15:28N 51°16' E 004°20'0 0.2
2017-Jul-19 14:59N 51°16' E 004°20'1 2.4
2017-Jul-19 14:28N 51°17' E 004°22'0 0.0
2017-Jul-19 14:00N 51°17' E 004°22'0 0.0
2017-Jul-19 13:29N 51°17' E 004°22'0 0.3
2017-Jul-19 13:00N 51°17' E 004°22'2 3.8
2017-Jul-19 12:30N 51°18' E 004°20'2 3.1
2017-Jul-19 11:59N 51°20' E 004°20'0 0.0
2017-Jul-19 11:30N 51°20' E 004°20'0 0.3
2017-Jul-19 10:58N 51°20' E 004°20'0 0.0
2017-Jul-19 10:29N 51°20' E 004°20'0 0.0
2017-Jul-19 10:00N 51°20' E 004°20'0 0.1
2017-Jul-19 09:30N 51°20' E 004°20'0 0.0
2017-Jul-19 09:00N 51°20' E 004°20'0 0.0
2017-Jul-19 08:30N 51°20' E 004°20'2 2.9
2017-Jul-19 07:54N 51°18' E 004°20'1 2.1
2017-Jul-19 07:30N 51°17' E 004°21'1 1.2
2017-Jul-19 07:00N 51°17' E 004°21'3 5.8
2017-Jul-19 06:29N 51°15' E 004°24'1 1.8
2017-Jul-19 06:00N 51°16' E 004°24'0 0.0
2017-Jul-19 05:30N 51°16' E 004°24'0 0.0
2017-Jul-19 04:59N 51°16' E 004°24'0 0.0
2017-Jul-19 04:28N 51°16' E 004°24'0 0.0
2017-Jul-19 04:00N 51°16' E 004°24'0 0.0
2017-Jul-19 03:30N 51°16' E 004°24'0 0.0
2017-Jul-19 02:59N 51°16' E 004°24'0 0.0
2017-Jul-19 02:27N 51°16' E 004°24'0 0.0
2017-Jul-19 02:00N 51°16' E 004°24'0 0.0
2017-Jul-19 01:29N 51°16' E 004°24'0 0.0
2017-Jul-19 01:00N 51°16' E 004°24'0 0.0
2017-Jul-19 00:25N 51°16' E 004°24'0 0.0
2017-Jul-18 23:55N 51°16' E 004°24'0 0.0
2017-Jul-18 23:28N 51°16' E 004°24'0 0.0
2017-Jul-18 22:59N 51°16' E 004°24'0 0.0
2017-Jul-18 22:28N 51°16' E 004°24'0 0.0
2017-Jul-18 22:00N 51°16' E 004°24'0 0.0
2017-Jul-18 21:30N 51°16' E 004°24'0 0.0
2017-Jul-18 21:01N 51°16' E 004°24'0 0.0
2017-Jul-18 20:27N 51°16' E 004°24'0 0.0
2017-Jul-18 19:57N 51°16' E 004°24'0 0.0
2017-Jul-18 19:26N 51°16' E 004°24'0 0.0
2017-Jul-18 19:01N 51°16' E 004°24'0 0.0
2017-Jul-18 18:30N 51°16' E 004°24'0 0.0
2017-Jul-18 18:00N 51°16' E 004°24'0 0.0
2017-Jul-18 17:29N 51°16' E 004°24'1 1.4
2017-Jul-18 17:00N 51°15' E 004°24'1 1.7
2017-Jul-18 16:31N 51°16' E 004°24'1 1.5
2017-Jul-18 16:01N 51°16' E 004°23'2 3.2
2017-Jul-18 15:30N 51°16' E 004°20'0 0.7
2017-Jul-18 15:00N 51°17' E 004°20'2 2.0
2017-Jul-18 14:00N 51°16' E 004°17'0 0.2
2017-Jul-18 13:30N 51°16' E 004°17'1 2.7
2017-Jul-18 12:59N 51°16' E 004°15'1 2.0
2017-Jul-18 12:29N 51°17' E 004°13'0 0.0
2017-Jul-18 11:59N 51°17' E 004°13'0 0.0
2017-Jul-18 11:30N 51°17' E 004°13'0 0.1
2017-Jul-18 11:00N 51°17' E 004°13'1 2.1
2017-Jul-18 10:30N 51°17' E 004°15'1 2.5
2017-Jul-18 10:00N 51°18' E 004°16'3 6.5
2017-Jul-18 09:30N 51°21' E 004°16'0 0.0
2017-Jul-18 09:00N 51°21' E 004°16'0 0.0
2017-Jul-18 08:29N 51°21' E 004°16'0 0.0
2017-Jul-18 08:00N 51°21' E 004°16'3 5.1
2017-Jul-18 07:29N 51°18' E 004°16'1 3.2
2017-Jul-18 07:00N 51°17' E 004°15'0 0.0
2017-Jul-18 06:30N 51°17' E 004°15'2 3.7
2017-Jul-18 06:00N 51°19' E 004°16'2 4.2
2017-Jul-18 05:30N 51°21' E 004°15'0 0.0
2017-Jul-18 04:57N 51°21' E 004°15'0 0.0
2017-Jul-18 04:30N 51°21' E 004°15'0 0.1
2017-Jul-18 04:00N 51°21' E 004°15'0 0.0
2017-Jul-18 03:30N 51°21' E 004°15'0 0.0
2017-Jul-18 03:00N 51°21' E 004°15'0 0.0
2017-Jul-18 02:27N 51°21' E 004°15'0 0.0
2017-Jul-18 02:00N 51°21' E 004°15'0 0.0
2017-Jul-18 01:30N 51°21' E 004°15'0 0.0
2017-Jul-18 00:59N 51°21' E 004°15'0 0.0
2017-Jul-18 00:28N 51°21' E 004°15'0 0.0
2017-Jul-18 00:00N 51°21' E 004°15'0 0.0
2017-Jul-17 23:27N 51°21' E 004°15'1 2.2
2017-Jul-17 23:00N 51°20' E 004°16'0 0.0
2017-Jul-17 22:30N 51°20' E 004°16'0 0.0
2017-Jul-17 21:53N 51°20' E 004°16'0 0.3
2017-Jul-17 21:30N 51°21' E 004°16'0 0.0
2017-Jul-17 21:00N 51°21' E 004°16'0 0.0
2017-Jul-17 20:30N 51°21' E 004°16'0 0.2
2017-Jul-17 19:59N 51°20' E 004°16'2 4.6
2017-Jul-17 19:30N 51°18' E 004°16'0 0.0
2017-Jul-17 18:59N 51°18' E 004°16'0 0.0
2017-Jul-17 18:29N 51°18' E 004°16'0 0.0
2017-Jul-17 18:00N 51°18' E 004°16'1 1.2
2017-Jul-17 17:29N 51°19' E 004°17'0 0.0
2017-Jul-17 16:59N 51°19' E 004°17'0 0.0
2017-Jul-17 16:30N 51°19' E 004°17'0 0.0
2017-Jul-17 16:01N 51°19' E 004°17'0 0.1
2017-Jul-17 15:30N 51°19' E 004°17'2 3.0
2017-Jul-17 14:55N 51°21' E 004°17'0 0.5
2017-Jul-17 14:29N 51°21' E 004°18'2 3.4
2017-Jul-17 13:46N 51°23' E 004°16'4 7.7
2017-Jul-17 13:13N 51°27' E 004°14'16 6.1
2017-Jul-17 10:35N 51°41' E 004°25'0 0.0
2017-Jul-17 10:30N 51°41' E 004°25'0 0.0
2017-Jul-17 10:00N 51°41' E 004°25'0 0.6
2017-Jul-17 09:30N 51°42' E 004°25'0 0.0
2017-Jul-17 09:00N 51°42' E 004°25'1122.4
2017-Jul-17 08:30N 51°44' E 004°43'0 0.0
2017-Jul-17 08:00N 51°44' E 004°43'0 0.0
2017-Jul-17 07:30N 51°44' E 004°43'2 4.9
2017-Jul-17 07:00N 51°46' E 004°45'4 8.1
2017-Jul-17 06:30N 51°48' E 004°51'2 3.4
2017-Jul-17 05:58N 51°49' E 004°53'4 8.4
2017-Jul-17 05:29N 51°49' E 004°60'5 8.7
2017-Jul-17 04:52N 51°49' E 005°08'4 9.1
2017-Jul-17 04:23N 51°49' E 005°16'4 8.1
2017-Jul-17 03:52N 51°49' E 005°22'7 8.8
2017-Jul-17 03:05N 51°53' E 005°30'1 9.7
2017-Jul-17 03:00N 51°54' E 005°32'5 9.6
2017-Jul-17 02:30N 51°54' E 005°40'5 9.6
2017-Jul-17 02:00N 51°53' E 005°47'4 7.8
2017-Jul-17 01:30N 51°52' E 005°53'4 7.3
2017-Jul-17 01:00N 51°52' E 005°59'4 7.8
2017-Jul-17 00:30N 51°51' E 006°05'5 9.6
2017-Jul-17 00:00N 51°50' E 006°13'5 9.1
2017-Jul-16 23:29N 51°47' E 006°19'4 8.4
2017-Jul-16 23:00N 51°45' E 006°25'4 7.8
2017-Jul-16 22:29N 51°42' E 006°28'10 7.0
2017-Jul-16 21:04N 51°35' E 006°40'1 9.7
2017-Jul-16 20:58N 51°34' E 006°41'4 8.5
2017-Jul-16 20:30N 51°31' E 006°43'3 5.9
2017-Jul-16 20:00N 51°28' E 006°43'5 8.9
2017-Jul-16 19:29N 51°23' E 006°44'27 6.2
2017-Jul-16 15:05N 50°58' E 006°60'1 9.8
2017-Jul-16 15:00N 50°57' E 006°58'4 7.9
2017-Jul-16 14:27N 50°54' E 007°02'11 7.4
2017-Jul-16 12:58N 50°43' E 007°08'102 6.8
2017-Jul-15 21:55N 49°14' E 008°23'100 3.4
2017-Jul-14 16:50N 47°39' E 007°31'0 1.2
2017-Jul-14 16:26N 47°39' E 007°32'1 1.9
2017-Jul-14 16:00N 47°38' E 007°32'4 7.0
2017-Jul-14 15:30N 47°36' E 007°35'1 1.0
2017-Jul-14 15:00N 47°35' E 007°35'0 0.0
2017-Jul-14 14:28N 47°35' E 007°35'0 0.0
2017-Jul-14 14:00N 47°35' E 007°35'0 0.0
2017-Jul-14 13:29N 47°35' E 007°35'0 0.4
2017-Jul-14 13:00N 47°35' E 007°35'0 0.7
2017-Jul-14 12:26N 47°35' E 007°36'0 0.1
2017-Jul-14 11:59N 47°35' E 007°36'0 0.0
2017-Jul-14 11:29N 47°35' E 007°36'0 0.0
2017-Jul-14 11:00N 47°35' E 007°36'0 0.0
2017-Jul-14 10:28N 47°35' E 007°36'0 0.1
2017-Jul-14 10:00N 47°35' E 007°36'0 0.1
2017-Jul-14 09:30N 47°35' E 007°36'0 0.0
2017-Jul-14 09:00N 47°35' E 007°36'0 0.0
2017-Jul-14 08:30N 47°35' E 007°36'0 0.0
2017-Jul-14 07:58N 47°35' E 007°36'0 0.1
2017-Jul-14 07:30N 47°35' E 007°36'0 0.0
2017-Jul-14 06:59N 47°35' E 007°36'0 0.0
2017-Jul-14 06:25N 47°35' E 007°36'0 0.0
2017-Jul-14 06:00N 47°35' E 007°36'0 0.1
2017-Jul-14 05:30N 47°35' E 007°36'0 0.1
2017-Jul-14 05:00N 47°35' E 007°36'0 0.1
2017-Jul-14 04:29N 47°35' E 007°36'0 0.1
2017-Jul-14 03:57N 47°35' E 007°36'0 0.0
2017-Jul-14 03:23N 47°35' E 007°36'0 0.1
2017-Jul-14 02:49N 47°35' E 007°36'0 0.2
2017-Jul-14 02:14N 47°35' E 007°36'0 0.1
2017-Jul-14 01:59N 47°35' E 007°36'0 0.0
2017-Jul-14 01:30N 47°35' E 007°36'0 0.1
2017-Jul-14 00:56N 47°35' E 007°36'0 0.1
2017-Jul-14 00:24N 47°35' E 007°36'0 0.1
2017-Jul-14 00:00N 47°35' E 007°36'0 0.0
2017-Jul-13 23:28N 47°35' E 007°36'0 0.0
2017-Jul-13 22:57N 47°35' E 007°36'0 0.0
2017-Jul-13 22:30N 47°35' E 007°36'0 0.1
2017-Jul-13 21:55N 47°35' E 007°36'0 0.1
2017-Jul-13 21:26N 47°35' E 007°36'0 0.1
2017-Jul-13 20:58N 47°35' E 007°36'0 0.0
2017-Jul-13 20:30N 47°35' E 007°36'0 0.0
2017-Jul-13 19:56N 47°35' E 007°36'0 0.0
2017-Jul-13 18:59N 47°35' E 007°36'0 0.0
2017-Jul-13 18:28N 47°35' E 007°36'0 0.3
2017-Jul-13 18:00N 47°35' E 007°36'0 0.4
2017-Jul-13 17:28N 47°35' E 007°36'0 0.0
2017-Jul-13 16:58N 47°35' E 007°36'0 0.0
2017-Jul-13 16:30N 47°35' E 007°36'0 0.0
2017-Jul-13 16:00N 47°35' E 007°36'0 0.0
2017-Jul-13 15:29N 47°35' E 007°36'0 0.0
2017-Jul-13 15:00N 47°35' E 007°36'0 0.0
2017-Jul-13 14:30N 47°35' E 007°36'0 0.0
2017-Jul-13 14:00N 47°35' E 007°36'0 0.0
2017-Jul-13 13:30N 47°35' E 007°36'0 0.0
2017-Jul-13 13:00N 47°35' E 007°36'0 0.0
2017-Jul-13 12:30N 47°35' E 007°36'2 1.7
2017-Jul-13 11:27N 47°34' E 007°37'0 0.9
2017-Jul-13 11:00N 47°34' E 007°38'2 3.3
2017-Jul-13 10:30N 47°32' E 007°40'0 0.0
2017-Jul-13 10:00N 47°32' E 007°40'0 0.0
2017-Jul-13 09:30N 47°32' E 007°40'0 0.0
2017-Jul-13 09:00N 47°32' E 007°40'0 0.0
2017-Jul-13 08:30N 47°32' E 007°40'0 0.0
2017-Jul-13 07:59N 47°32' E 007°40'0 0.0
2017-Jul-13 07:30N 47°32' E 007°40'0 0.0
2017-Jul-13 06:51N 47°32' E 007°40'0 0.0
2017-Jul-13 06:29N 47°32' E 007°40'1 1.2
2017-Jul-13 05:58N 47°33' E 007°39'0 0.8
2017-Jul-13 05:30N 47°33' E 007°39'  

Dump ship's entire track history